1. Oktober 2022

Uhrzeit Code Wetter Temp. Sichtweite Wolkendecke Wind METAR/SPECI
02:55
M
11 °C 7 km 1.300 ft 180° 180° 12 kt METAR EHDL 010055Z AUTO 18012KT 120V250 7000 RA FEW007 SCT011 BKN013 BKN015CB 11/10 Q1002 GRN
02:25
M
11 °C 8 km 1.500 ft Var Var 11 kt METAR EHDL 010025Z AUTO VRB11KT 8000 RA FEW010 BKN015CB OVC019 11/10 Q1003 WHT
01:55
M
11 °C 10 km+ 1.500 ft 180° 180° 11 kt METAR EHDL 302355Z AUTO 18011KT 110V240 9999 RA BKN015CB SCT020 BKN041 11/10 Q1003 WHT
01:25
M
11 °C 10 km+ 1.500 ft 180° 180° 11 kt METAR EHDL 302325Z AUTO 18011KT 090V240 9999 -SHRA BKN015CB SCT061 BKN066 11/09 Q1004 WHT
00:55
V
12 °C 10 km+ 6.200 ft 180° 180° 12 kt METAR EHDL 302255Z AUTO 18012KT 100V250 9999 -RA FEW055 OVC062 12/09 Q1004 BLU
00:25
V
13 °C 10 km+ 6.600 ft 190° 190° 12 kt METAR EHDL 302225Z AUTO 19012KT 110V260 9999 DZRA FEW057 OVC066 13/08 Q1004 BLU

30. September 2022

Uhrzeit Code Wetter Temp. Sichtweite Wolkendecke Wind METAR/SPECI
23:55
V
13 °C 10 km+ 5.800 ft 190° 190° 13 kt METAR EHDL 302155Z AUTO 19013KT 110V280 9999 BKN058 BKN064 OVC069 13/07 Q1005 BLU
23:25
V
13 °C 10 km+ 10.000 ft 190° 190° 12 kt METAR EHDL 302125Z AUTO 19012KT 120V250 9999 FEW062 OVC100 13/07 Q1005 BLU
22:55
V
13 °C 10 km+ 11.000 ft 190° 190° 13 kt METAR EHDL 302055Z AUTO 19013KT 120V250 9999 OVC110 13/07 Q1005 BLU
22:25
V
14 °C 10 km+ 13.000 ft 180° 180° 13 kt METAR EHDL 302025Z AUTO 18013KT 100V250 9999 OVC130 14/07 Q1006 BLU
21:55
V
14 °C 10 km+ 15.000 ft 190° 190° 11 kt METAR EHDL 301955Z AUTO 19011KT 120V270 9999 OVC150 14/07 Q1006 BLU
21:25
V
13 °C 10 km+ 19.000 ft 180° 180° 9 kt METAR EHDL 301925Z AUTO 18009KT 120V250 9999 OVC190 13/08 Q1007 BLU
20:55
V
13 °C 10 km+ 20.000 ft 180° 180° 8 kt METAR EHDL 301855Z AUTO 18008KT 120V230 9999 OVC200 13/08 Q1007 BLU
20:25
V
13 °C 10 km+ 22.000 ft 180° 180° 8 kt METAR EHDL 301825Z AUTO 18008KT 110V260 9999 FEW058 OVC220 13/08 Q1007 BLU
19:55
V
13 °C 10 km+ 23.000 ft 180° 180° 7 kt METAR EHDL 301755Z AUTO 18007KT 120V230 9999 FEW060 OVC230 13/08 Q1007 BLU
19:25
V
14 °C 10 km+ 25.000 ft 190° 190° 7 kt METAR EHDL 301725Z AUTO 19007KT 130V230 9999 FEW043 OVC250 14/08 Q1007 BLU
18:55
V
14 °C 10 km+ 26.000 ft 200° 200° 8 kt METAR EHDL 301655Z AUTO 20008KT 140V250 9999 BKN260 14/08 Q1008 BLU
18:25
V
16 °C 10 km+ 6.200 ft 200° 200° 10 kt METAR EHDL 301625Z AUTO 20010KT 140V260 9999 FEW048 SCT057 BKN062 16/08 Q1008 BLU
17:55
V
16 °C 10 km+ 6.200 ft 200° 200° 9 kt METAR EHDL 301555Z AUTO 20009KT 140V270 9999 FEW040 BKN062 BKN260 16/08 Q1008 BLU
17:25
V
16 °C 10 km+ 6.200 ft 200° 200° 9 kt METAR EHDL 301525Z AUTO 20009KT 120V260 9999 FEW038 BKN062 BKN270 16/08 Q1008 BLU
16:55
V
16 °C 10 km+ 6.000 ft 200° 200° 12 kt METAR EHDL 301455Z AUTO 20012KT 130V270 9999 FEW035 SCT040 OVC060 16/08 Q1008 BLU
16:25
V
16 °C 10 km+ 4.600 ft 200° 200° 9 kt METAR EHDL 301425Z AUTO 20009KT 130V300 9999 SCT035 SCT041 BKN046 16/08 Q1008 BLU
15:55
V
16 °C 10 km+ 3.500 ft 210° 210° 9 kt METAR EHDL 301355Z AUTO 21009KT 130V280 9999 BKN035 BKN039 BKN050 16/08 Q1008 BLU
15:25
V
17 °C 10 km+ 4.000 ft 190° 190° 13 kt METAR EHDL 301325Z AUTO 19013KT 110V270 9999 SCT035 BKN040 17/08 Q1008 BLU
14:55
V
17 °C 10 km+ 3.200 ft 200° 200° 11 kt METAR EHDL 301255Z AUTO 20011KT 120V280 9999 BKN032 BKN036 17/08 Q1009 BLU
14:25
V
16 °C 10 km+ - 220° 220° 11 kt METAR EHDL 301225Z AUTO 22011KT 110V280 9999 NCD 16/08 Q1009 BLU
13:55
V
16 °C 10 km+ - 210° 210° 12 kt METAR EHDL 301155Z AUTO 21012KT 120V270 9999 NCD 16/08 Q1009 BLU
13:25
V
16 °C 10 km+ - 200° 200° 12 kt METAR EHDL 301125Z AUTO 20012KT 140V280 9999 FEW028 16/08 Q1009 BLU
12:55
V
16 °C 10 km+ - 210° 210° 10 kt METAR EHDL 301055Z AUTO 21010KT 140V270 9999 NCD 16/08 Q1009 BLU
12:25
V
15 °C 10 km+ - 200° 200° 9 kt METAR EHDL 301025Z AUTO 20009KT 120V290 9999 NCD 15/08 Q1009 BLU
11:55
V
14 °C 10 km+ - Var Var 8 kt METAR EHDL 300955Z AUTO VRB08KT 9999 NCD 14/08 Q1009 BLU
11:25
V
14 °C 10 km+ - Var Var 7 kt METAR EHDL 300925Z AUTO VRB07KT 9999 NCD 14/08 Q1009 BLU
10:55
V
12 °C 10 km+ - 200° 200° 6 kt METAR EHDL 300855Z AUTO 20006KT 120V250 9999 NCD 12/08 Q1009 BLU
10:25
V
11 °C 10 km+ - 200° 200° 6 kt METAR EHDL 300825Z AUTO 20006KT 110V260 9999 NCD 11/08 Q1009 BLU
09:55
V
10 °C 8 km - 180° 180° 3 kt METAR EHDL 300755Z AUTO 18003KT 090V230 8000 BR NCD 10/08 Q1009 BLU
09:25
V
9 °C 8 km - Var Var 1 kt METAR EHDL 300725Z AUTO VRB01KT 8000 BR NCD 09/07 Q1009 BLU
08:55
V
7 °C 9 km - Var Var 1 kt METAR EHDL 300655Z AUTO VRB01KT 9000 BR SCT062 07/07 Q1009 BLU
08:25
V
3 °C 10 km+ 6.300 ft 130° 130° 2 kt METAR EHDL 300625Z AUTO 13002KT 9999 BKN063 03/03 Q1009 BLU
07:55
V
2 °C 10 km+ - 120° 120° 2 kt METAR EHDL 300555Z AUTO 12002KT 9999 NCD 02/01 Q1009 BLU
07:25
V
2 °C 10 km+ - 130° 130° 2 kt METAR EHDL 300525Z AUTO 13002KT 9999 NCD 02/02 Q1009 BLU
06:55
V
2 °C 10 km+ - 140° 140° 2 kt METAR EHDL 300455Z AUTO 14002KT 9999 NCD 02/01 Q1008 BLU
06:25
V
2 °C 10 km+ - 140° 140° 1 kt METAR EHDL 300425Z AUTO 14001KT 9999 NCD 02/02 Q1008 BLU
05:55
V
2 °C 10 km+ - Var Var 1 kt METAR EHDL 300355Z AUTO VRB01KT 9999 NCD 02/01 Q1008 BLU
05:25
V
2 °C 10 km+ - 100° 100° 2 kt METAR EHDL 300325Z AUTO 10002KT 9999 NCD 02/01 Q1008 BLU
04:55
V
2 °C 10 km+ - 110° 110° 1 kt METAR EHDL 300255Z AUTO 11001KT 9999 NCD 02/02 Q1008 BLU
04:25
V
2 °C 10 km+ - 110° 110° 1 kt METAR EHDL 300225Z AUTO 11001KT 9999 NCD 02/01 Q1008 BLU
03:55
V
3 °C 10 km+ - 120° 120° 2 kt METAR EHDL 300155Z AUTO 12002KT 9999 NCD 03/02 Q1008 BLU
03:25
V
2 °C 10 km+ - 120° 120° 1 kt METAR EHDL 300125Z AUTO 12001KT 9999 NCD 02/02 Q1008 BLU
02:55
V
3 °C 10 km+ - 120° 120° 1 kt METAR EHDL 300055Z AUTO 12001KT 9999 NCD 03/03 Q1008 BLU
02:25
V
3 °C 10 km+ - 120° 120° 1 kt METAR EHDL 300025Z AUTO 12001KT 9999 NCD 03/02 Q1007 BLU RMK CB INFO NOT AVBL
01:55
V
4 °C 10 km+ - 110° 110° 1 kt METAR EHDL 292355Z AUTO 11001KT 9999 NCD 04/03 Q1007 BLU
01:25
V
4 °C 10 km+ - 090° 090° 2 kt METAR EHDL 292325Z AUTO 09002KT 9999 NCD 04/03 Q1007 BLU
00:55
V
4 °C 10 km+ 9.100 ft 120° 120° 1 kt METAR EHDL 292255Z AUTO 12001KT 9999 BKN091 04/04 Q1007 BLU
00:25
V
5 °C 10 km+ - 130° 130° 2 kt METAR EHDL 292225Z AUTO 13002KT 9999 SCT091 05/04 Q1007 BLU

29. September 2022

Uhrzeit Code Wetter Temp. Sichtweite Wolkendecke Wind METAR/SPECI
23:55
V
5 °C 10 km+ 8.900 ft 120° 120° 1 kt METAR EHDL 292155Z AUTO 12001KT 9999 OVC089 05/04 Q1007 BLU
23:25
V
5 °C 10 km+ 15.000 ft 100° 100° 2 kt METAR EHDL 292125Z AUTO 10002KT 9999 OVC150 05/05 Q1007 BLU
22:55
V
6 °C 10 km+ 14.000 ft 120° 120° 1 kt METAR EHDL 292055Z AUTO 12001KT 9999 OVC140 06/05 Q1007 BLU
22:25
V
6 °C 10 km+ - 130° 130° 1 kt METAR EHDL 292025Z AUTO 13001KT 9999 SCT170 06/04 Q1006 BLU
21:55
V
6 °C 10 km+ - Var 000° 0 kt METAR EHDL 291955Z AUTO 00000KT 9999 NCD 06/06 Q1006 BLU
21:25
V
7 °C 10 km+ - 360° 360° 1 kt METAR EHDL 291925Z AUTO 36001KT 9999 SCT180 07/06 Q1006 BLU
20:55
V
8 °C 10 km+ - Var Var 2 kt METAR EHDL 291855Z AUTO VRB02KT 9999 NCD 08/07 Q1005 BLU
20:25
V
9 °C 10 km+ - Var Var 1 kt METAR EHDL 291825Z AUTO VRB01KT 9999 SCT260 09/08 Q1005 BLU
19:55
V
11 °C 10 km+ - 340° 340° 2 kt METAR EHDL 291755Z AUTO 34002KT 9999 SCT270 11/08 Q1005 BLU
19:25
V
13 °C 10 km+ 3.400 ft Var Var 2 kt METAR EHDL 291725Z AUTO VRB02KT 9999 BKN034 BKN052 BKN067 13/08 Q1005 BLU
18:55
V
14 °C 10 km+ 3.400 ft 040° 040° 4 kt METAR EHDL 291655Z AUTO 04004KT 320V100 9999 OVC034 14/08 Q1004 BLU
18:25
V
15 °C 10 km+ 3.500 ft 010° 010° 5 kt METAR EHDL 291625Z AUTO 01005KT 320V060 9999 OVC035 15/07 Q1004 BLU
17:55
V
14 °C 10 km+ 3.700 ft 290° 290° 5 kt METAR EHDL 291555Z AUTO 29005KT 290V100 9999 BKN037 OVC041 14/07 Q1004 BLU
17:25
V
15 °C 10 km+ 6.300 ft Var Var 3 kt METAR EHDL 291525Z AUTO VRB03KT 9999 FEW047 OVC063 15/06 Q1003 BLU
16:55
V
15 °C 10 km+ 24.000 ft Var Var 2 kt METAR EHDL 291455Z AUTO VRB02KT 9999 SCT036 OVC240 15/06 Q1003 BLU
16:25
V
14 °C 10 km+ 22.000 ft Var Var 2 kt METAR EHDL 291425Z AUTO VRB02KT 9999 BKN220 14/06 Q1003 BLU
15:55
V
14 °C 10 km+ 3.400 ft 300° 300° 4 kt METAR EHDL 291355Z AUTO 30004KT 250V010 9999 BKN034 BKN039 OVC049 14/06 Q1003 BLU
15:25
V
15 °C 10 km+ 3.400 ft 190° 190° 4 kt METAR EHDL 291325Z AUTO 19004KT 290V020 9999 OVC034 15/07 Q1003 BLU
14:55
V
14 °C 10 km+ - Var Var 1 kt METAR EHDL 291255Z AUTO VRB01KT 9999 SCT240 14/06 Q1003 BLU
14:25
V
14 °C 10 km+ - Var Var 4 kt METAR EHDL 291225Z AUTO VRB04KT 9999 FEW029 14/07 Q1002 BLU
13:55
V
14 °C 10 km+ - Var Var 3 kt METAR EHDL 291155Z AUTO VRB03KT 9999 NCD 14/07 Q1002 BLU
13:25
V
14 °C 10 km+ - Var Var 3 kt METAR EHDL 291125Z AUTO VRB03KT 9999 NCD 14/07 Q1002 BLU
12:55
V
13 °C 10 km+ - Var Var 3 kt METAR EHDL 291055Z AUTO VRB03KT 9999 NCD 13/07 Q1002 BLU
12:25
V
12 °C 10 km+ - Var Var 2 kt METAR EHDL 291025Z AUTO VRB02KT 9999 NCD 12/08 Q1002 BLU
11:55
V
11 °C 10 km+ - Var Var 3 kt METAR EHDL 290955Z AUTO VRB03KT 9999 FEW008 11/08 Q1002 BLU
11:25
L
10 °C 8 km 400 ft Var Var 3 kt METAR EHDL 290925Z AUTO VRB03KT 8000 BR BKN004 BKN005 10/08 Q1002 YLO
10:55
L
9 °C 3,2 km 100 ft 150° 150° 3 kt METAR EHDL 290855Z AUTO 15003KT 130V270 3200 BR OVC001 09/08 Q1002 RED
10:25
L
8 °C 1,4 km 100 ft 170° 170° 3 kt METAR EHDL 290825Z AUTO 17003KT 140V250 1400 BR OVC001 08/07 Q1001 RED
09:55
L
7 °C 2 km 100 ft 160° 160° 3 kt METAR EHDL 290755Z AUTO 16003KT 110V220 2000 BR BKN001 OVC002 07/06 Q1001 RED
09:25
I
6 °C 3,9 km - Var Var 2 kt METAR EHDL 290725Z AUTO VRB02KT 3900 BR NCD 06/06 Q1001 GRN
08:55
I
5 °C 1,8 km - 130° 130° 3 kt METAR EHDL 290655Z AUTO 13003KT 200V340 1800 BR FEW000 05/05 Q1001 YLO
08:25
L
4 °C 250 m - Var Var 2 kt METAR EHDL 290625Z AUTO VRB02KT 0250 FG VV000 04/04 Q1000 RED
07:55
I
3 °C 1,6 km - 100° 100° 3 kt METAR EHDL 290555Z AUTO 10003KT 110V180 1600 BR OVC000 03/03 Q1000 RED RMK CB INFO NOT AVBL
07:25
I
2 °C 4,9 km - 120° 120° 2 kt METAR EHDL 290525Z AUTO 12002KT 4900 BR BKN000 02/02 Q1000 RED
06:55
V
2 °C 10 km+ - 140° 140° 2 kt METAR EHDL 290455Z AUTO 14002KT 9999 BKN000 02/01 Q1000 RED
06:25
V
2 °C 10 km+ - 110° 110° 3 kt METAR EHDL 290425Z AUTO 11003KT 9999 OVC000 02/02 Q1000 RED
05:55
V
3 °C 10 km+ - Var Var 2 kt METAR EHDL 290355Z AUTO VRB02KT 9999 SCT000 03/02 Q0999 RED
05:25
V
3 °C 10 km+ - 090° 090° 3 kt METAR EHDL 290325Z AUTO 09003KT 100V170 9999 OVC000 03/03 Q0999 RED
04:55
V
3 °C 10 km+ - Var Var 2 kt METAR EHDL 290255Z AUTO VRB02KT 9999 BKN000 03/03 Q0999 RED
04:25
V
3 °C 10 km+ - 100° 100° 3 kt METAR EHDL 290225Z AUTO 10003KT 110V170 9999 NCD 03/03 Q0999 BLU
03:55
V
3 °C 10 km+ - 110° 110° 4 kt METAR EHDL 290155Z AUTO 11004KT 110V190 9999 SCT000 03/03 Q0999 RED
03:25
V
4 °C 10 km+ - Var Var 2 kt METAR EHDL 290125Z AUTO VRB02KT 9999 NCD 04/03 Q0999 BLU
02:55
V
4 °C 10 km+ - 090° 090° 2 kt METAR EHDL 290055Z AUTO 09002KT 9999 NCD 04/04 Q0999 BLU
02:25
V
5 °C 10 km+ - 100° 100° 2 kt METAR EHDL 290025Z AUTO 10002KT 9999 NCD 05/05 Q0999 BLU RMK CB INFO NOT AVBL
01:55
I
4 °C 3,3 km 17.000 ft Var Var 1 kt METAR EHDL 282355Z AUTO VRB01KT 3300 BR OVC170 04/04 Q0999 YLO
01:25
V
4 °C 10 km+ 19.000 ft Var Var 2 kt METAR EHDL 282325Z AUTO VRB02KT 9999 BKN190 04/04 Q0999 BLU
00:55
V
5 °C 10 km+ 20.000 ft 130° 130° 3 kt METAR EHDL 282255Z AUTO 13003KT 9999 OVC200 05/04 Q0999 BLU
00:25
V
5 °C 10 km+ 21.000 ft 110° 110° 2 kt METAR EHDL 282225Z AUTO 11002KT 9999 OVC210 05/05 Q0999 BLU

28. September 2022

Uhrzeit Code Wetter Temp. Sichtweite Wolkendecke Wind METAR/SPECI
23:55
V
6 °C 10 km+ 5.600 ft 120° 120° 2 kt METAR EHDL 282155Z AUTO 12002KT 9999 BKN056 06/05 Q0999 BLU
23:25
V
7 °C 10 km+ - 150° 150° 1 kt METAR EHDL 282125Z AUTO 15001KT 9999 NCD 07/06 Q0999 BLU
22:55
V
7 °C 10 km+ - 180° 180° 3 kt METAR EHDL 282055Z AUTO 18003KT 110V170 9999 SCT160 07/06 Q0999 BLU
22:25
V
7 °C 10 km+ - 190° 190° 3 kt METAR EHDL 282025Z AUTO 19003KT 100V160 9999 FEW160 07/07 Q0999 BLU
21:55
V
8 °C 10 km+ - 200° 200° 2 kt METAR EHDL 281955Z AUTO 20002KT 9999 NCD 08/07 Q0999 BLU RMK CB INFO NOT AVBL
21:25
V
8 °C 10 km+ 6.400 ft Var Var 2 kt METAR EHDL 281925Z AUTO VRB02KT 9999 BKN064 08/07 Q0998 BLU
20:55
V
9 °C 10 km+ - 170° 170° 3 kt METAR EHDL 281855Z AUTO 17003KT 9999 SCT220/// 09/07 Q0998 BLU
20:25
V
9 °C 10 km+ 8.500 ft 210° 210° 3 kt METAR EHDL 281825Z AUTO 21003KT 9999 OVC085 09/08 Q0998 BLU
19:55
V
10 °C 10 km+ 7.800 ft 220° 220° 3 kt METAR EHDL 281755Z AUTO 22003KT 9999 BKN078/// OVC084/// 10/08 Q0998 BLU
19:25
V
11 °C 10 km+ 14.000 ft 220° 220° 4 kt METAR EHDL 281725Z AUTO 22004KT 210V280 9999 FEW087 OVC140 11/08 Q0998 BLU
18:55
V
12 °C 10 km+ 16.000 ft 260° 260° 5 kt METAR EHDL 281655Z AUTO 26005KT 240V340 9999 FEW090/// OVC160/// 12/07 Q0998 BLU
18:25
V
13 °C 10 km+ 14.000 ft 250° 250° 5 kt METAR EHDL 281625Z AUTO 25005KT 210V320 9999 OVC140 13/08 Q0998 BLU
17:55
V
12 °C 10 km+ 12.000 ft 250° 250° 7 kt METAR EHDL 281555Z AUTO 25007KT 200V310 9999 SCT066/// OVC120/// 12/08 Q0997 BLU
17:25
V
12 °C 10 km+ 15.000 ft 250° 250° 4 kt METAR EHDL 281525Z AUTO 25004KT 190V330 9999 FEW082 OVC150 12/08 Q0997 BLU
16:55
V
12 °C 10 km+ 7.300 ft 280° 280° 6 kt METAR EHDL 281455Z AUTO 28006KT 210V340 9999 BKN073/// BKN098/// OVC100/// 12/07 Q0997 REDZ BLU
Ältere Daten

Wir und Dritte verfolgen dein Internetverhalten auf unserer Website mit Cookies. Wenn du fortfährst, gehen wir davon aus, dass du mit unserer Cookie-Richtlinie einverstanden bist. Mehr erfahren